Tarnow, Poland
Current Conditions -  °F | °C
As of 10:00 AM on Friday 19 Dec 2014 (Local Time) from EPRZ Reporting Station
Light Rain Light Rain  
Wind Chill: 38°   Ceiling: 1300
Heat Index: 45°   Visibility: 4mi
Dew Point: 43°   Wind: 13mph
Humidity: 93%   Direction: 220°SW
Pressure: 29.88"   Gusts: NA
Location:  50.01°N, 20.99°E
Report Text: EPRZ 190800Z 22011KT 6000 -RA SCT006 OVC013 07/06 Q1012
Loading
Personal Weather Stations






























Interactive Weather Map New forecast layout! Learn more

10-Day Weather Forecast

Advertisements
Track Severe Weather on mobile